sensor_id;sensor_type;location;lat;lon;timestamp;P1;durP1;ratioP1;P2;durP2;ratioP2
37115;SDS011;23025;41.996;23.098;2023-12-20T00:00:18;16.35;;;15.50;;
37115;SDS011;23025;41.996;23.098;2023-12-20T00:02:44;18.35;;;17.42;;
37115;SDS011;23025;41.996;23.098;2023-12-20T00:05:12;21.27;;;20.30;;
37115;SDS011;23025;41.996;23.098;2023-12-20T00:07:38;24.55;;;23.23;;
37115;SDS011;23025;41.996;23.098;2023-12-20T00:10:05;25.67;;;24.42;;
37115;SDS011;23025;41.996;23.098;2023-12-20T00:12:34;26.77;;;25.52;;
37115;SDS011;23025;41.996;23.098;2023-12-20T00:15:00;17.85;;;16.98;;
37115;SDS011;23025;41.996;23.098;2023-12-20T00:17:27;19.67;;;18.80;;
37115;SDS011;23025;41.996;23.098;2023-12-20T00:19:53;15.77;;;14.73;;
37115;SDS011;23025;41.996;23.098;2023-12-20T00:22:20;15.10;;;14.50;;
37115;SDS011;23025;41.996;23.098;2023-12-20T00:24:46;14.98;;;14.13;;
37115;SDS011;23025;41.996;23.098;2023-12-20T00:27:13;22.35;;;21.08;;
37115;SDS011;23025;41.996;23.098;2023-12-20T00:29:40;18.83;;;17.90;;
37115;SDS011;23025;41.996;23.098;2023-12-20T00:32:08;21.75;;;20.80;;
37115;SDS011;23025;41.996;23.098;2023-12-20T00:34:34;16.52;;;15.77;;
37115;SDS011;23025;41.996;23.098;2023-12-20T00:37:01;20.67;;;19.77;;
37115;SDS011;23025;41.996;23.098;2023-12-20T00:39:27;22.77;;;21.60;;
37115;SDS011;23025;41.996;23.098;2023-12-20T00:41:54;18.08;;;17.40;;
37115;SDS011;23025;41.996;23.098;2023-12-20T00:44:20;14.30;;;13.60;;
37115;SDS011;23025;41.996;23.098;2023-12-20T00:46:48;18.95;;;17.40;;
37115;SDS011;23025;41.996;23.098;2023-12-20T00:49:15;16.13;;;15.43;;
37115;SDS011;23025;41.996;23.098;2023-12-20T00:51:41;16.50;;;15.80;;
37115;SDS011;23025;41.996;23.098;2023-12-20T00:54:08;16.33;;;15.43;;
37115;SDS011;23025;41.996;23.098;2023-12-20T00:56:34;20.23;;;18.63;;
37115;SDS011;23025;41.996;23.098;2023-12-20T00:59:01;19.38;;;18.48;;
37115;SDS011;23025;41.996;23.098;2023-12-20T01:01:27;26.65;;;25.63;;
37115;SDS011;23025;41.996;23.098;2023-12-20T01:03:55;17.60;;;16.90;;
37115;SDS011;23025;41.996;23.098;2023-12-20T01:06:22;17.80;;;16.98;;
37115;SDS011;23025;41.996;23.098;2023-12-20T01:08:48;21.30;;;20.10;;
37115;SDS011;23025;41.996;23.098;2023-12-20T01:11:15;12.27;;;11.68;;
37115;SDS011;23025;41.996;23.098;2023-12-20T01:13:41;19.08;;;18.08;;
37115;SDS011;23025;41.996;23.098;2023-12-20T01:16:09;22.45;;;21.35;;
37115;SDS011;23025;41.996;23.098;2023-12-20T01:18:36;16.83;;;15.90;;
37115;SDS011;23025;41.996;23.098;2023-12-20T01:21:05;20.63;;;19.73;;
37115;SDS011;23025;41.996;23.098;2023-12-20T01:23:32;14.38;;;13.45;;
37115;SDS011;23025;41.996;23.098;2023-12-20T01:25:58;16.42;;;15.52;;
37115;SDS011;23025;41.996;23.098;2023-12-20T01:28:25;23.27;;;22.23;;
37115;SDS011;23025;41.996;23.098;2023-12-20T01:30:52;16.25;;;14.80;;
37115;SDS011;23025;41.996;23.098;2023-12-20T01:33:19;15.18;;;14.48;;
37115;SDS011;23025;41.996;23.098;2023-12-20T01:35:45;13.88;;;13.25;;
37115;SDS011;23025;41.996;23.098;2023-12-20T01:38:13;13.95;;;13.20;;
37115;SDS011;23025;41.996;23.098;2023-12-20T01:40:39;20.25;;;19.42;;
37115;SDS011;23025;41.996;23.098;2023-12-20T01:43:07;16.20;;;15.43;;
37115;SDS011;23025;41.996;23.098;2023-12-20T01:45:33;21.88;;;20.85;;
37115;SDS011;23025;41.996;23.098;2023-12-20T01:48:00;18.40;;;17.25;;
37115;SDS011;23025;41.996;23.098;2023-12-20T01:50:28;18.48;;;17.77;;
37115;SDS011;23025;41.996;23.098;2023-12-20T01:52:54;14.13;;;13.52;;
37115;SDS011;23025;41.996;23.098;2023-12-20T01:55:24;19.00;;;18.05;;
37115;SDS011;23025;41.996;23.098;2023-12-20T01:57:51;21.08;;;20.05;;
37115;SDS011;23025;41.996;23.098;2023-12-20T02:00:17;13.38;;;12.73;;
37115;SDS011;23025;41.996;23.098;2023-12-20T02:02:48;18.08;;;17.30;;
37115;SDS011;23025;41.996;23.098;2023-12-20T02:05:15;21.17;;;20.38;;
37115;SDS011;23025;41.996;23.098;2023-12-20T02:07:42;16.13;;;14.90;;
37115;SDS011;23025;41.996;23.098;2023-12-20T02:10:09;22.10;;;20.95;;
37115;SDS011;23025;41.996;23.098;2023-12-20T02:12:37;21.45;;;20.48;;
37115;SDS011;23025;41.996;23.098;2023-12-20T02:15:03;25.65;;;24.52;;
37115;SDS011;23025;41.996;23.098;2023-12-20T02:17:31;14.40;;;13.50;;
37115;SDS011;23025;41.996;23.098;2023-12-20T02:19:58;15.93;;;15.20;;
37115;SDS011;23025;41.996;23.098;2023-12-20T02:22:26;14.85;;;14.05;;
37115;SDS011;23025;41.996;23.098;2023-12-20T02:24:53;15.95;;;15.35;;
37115;SDS011;23025;41.996;23.098;2023-12-20T02:27:19;16.60;;;15.38;;
37115;SDS011;23025;41.996;23.098;2023-12-20T02:29:46;22.88;;;21.95;;
37115;SDS011;23025;41.996;23.098;2023-12-20T02:32:13;23.23;;;22.00;;
37115;SDS011;23025;41.996;23.098;2023-12-20T02:34:40;18.85;;;17.90;;
37115;SDS011;23025;41.996;23.098;2023-12-20T02:37:06;23.33;;;22.38;;
37115;SDS011;23025;41.996;23.098;2023-12-20T02:39:34;19.42;;;18.30;;
37115;SDS011;23025;41.996;23.098;2023-12-20T02:42:00;25.63;;;24.50;;
37115;SDS011;23025;41.996;23.098;2023-12-20T02:44:27;18.95;;;18.02;;
37115;SDS011;23025;41.996;23.098;2023-12-20T02:46:53;22.00;;;20.85;;
37115;SDS011;23025;41.996;23.098;2023-12-20T02:49:20;18.70;;;17.90;;
37115;SDS011;23025;41.996;23.098;2023-12-20T02:51:46;14.45;;;13.85;;
37115;SDS011;23025;41.996;23.098;2023-12-20T02:54:13;18.65;;;17.50;;
37115;SDS011;23025;41.996;23.098;2023-12-20T02:56:41;20.65;;;19.67;;
37115;SDS011;23025;41.996;23.098;2023-12-20T02:59:08;25.40;;;24.20;;
37115;SDS011;23025;41.996;23.098;2023-12-20T03:01:34;17.95;;;17.25;;
37115;SDS011;23025;41.996;23.098;2023-12-20T03:04:01;19.90;;;19.08;;
37115;SDS011;23025;41.996;23.098;2023-12-20T03:06:27;14.98;;;14.35;;
37115;SDS011;23025;41.996;23.098;2023-12-20T03:08:54;18.35;;;17.52;;
37115;SDS011;23025;41.996;23.098;2023-12-20T03:11:20;13.32;;;12.63;;
37115;SDS011;23025;41.996;23.098;2023-12-20T03:13:48;12.35;;;11.85;;
37115;SDS011;23025;41.996;23.098;2023-12-20T03:16:15;16.75;;;16.00;;
37115;SDS011;23025;41.996;23.098;2023-12-20T03:18:42;15.80;;;15.10;;
37115;SDS011;23025;41.996;23.098;2023-12-20T03:21:08;15.65;;;14.68;;
37115;SDS011;23025;41.996;23.098;2023-12-20T03:23:35;17.55;;;16.73;;
37115;SDS011;23025;41.996;23.098;2023-12-20T03:26:02;15.45;;;14.43;;
37115;SDS011;23025;41.996;23.098;2023-12-20T03:28:29;16.05;;;15.35;;
37115;SDS011;23025;41.996;23.098;2023-12-20T03:30:57;15.00;;;14.40;;
37115;SDS011;23025;41.996;23.098;2023-12-20T03:33:23;20.40;;;19.48;;
37115;SDS011;23025;41.996;23.098;2023-12-20T03:35:50;14.57;;;13.88;;
37115;SDS011;23025;41.996;23.098;2023-12-20T03:38:16;14.68;;;13.77;;
37115;SDS011;23025;41.996;23.098;2023-12-20T03:40:43;23.98;;;23.05;;
37115;SDS011;23025;41.996;23.098;2023-12-20T03:43:09;17.83;;;16.48;;
37115;SDS011;23025;41.996;23.098;2023-12-20T03:45:36;13.90;;;13.20;;
37115;SDS011;23025;41.996;23.098;2023-12-20T03:48:04;22.52;;;21.40;;
37115;SDS011;23025;41.996;23.098;2023-12-20T03:50:31;14.25;;;13.65;;
37115;SDS011;23025;41.996;23.098;2023-12-20T03:52:57;14.10;;;13.57;;
37115;SDS011;23025;41.996;23.098;2023-12-20T03:55:24;22.73;;;21.63;;
37115;SDS011;23025;41.996;23.098;2023-12-20T03:57:50;12.90;;;12.23;;
37115;SDS011;23025;41.996;23.098;2023-12-20T04:00:17;20.42;;;19.30;;
37115;SDS011;23025;41.996;23.098;2023-12-20T04:02:44;21.88;;;20.85;;
37115;SDS011;23025;41.996;23.098;2023-12-20T04:05:12;24.38;;;23.38;;
37115;SDS011;23025;41.996;23.098;2023-12-20T04:07:38;21.48;;;20.58;;
37115;SDS011;23025;41.996;23.098;2023-12-20T04:10:05;28.60;;;27.13;;
37115;SDS011;23025;41.996;23.098;2023-12-20T04:12:32;19.48;;;18.67;;
37115;SDS011;23025;41.996;23.098;2023-12-20T04:14:58;20.80;;;19.98;;
37115;SDS011;23025;41.996;23.098;2023-12-20T04:17:25;25.10;;;23.67;;
37115;SDS011;23025;41.996;23.098;2023-12-20T04:19:51;22.50;;;21.65;;
37115;SDS011;23025;41.996;23.098;2023-12-20T04:22:19;15.35;;;14.18;;
37115;SDS011;23025;41.996;23.098;2023-12-20T04:24:46;19.05;;;17.85;;
37115;SDS011;23025;41.996;23.098;2023-12-20T04:27:12;18.85;;;17.98;;
37115;SDS011;23025;41.996;23.098;2023-12-20T04:29:39;17.75;;;17.05;;
37115;SDS011;23025;41.996;23.098;2023-12-20T04:32:06;15.70;;;14.93;;
37115;SDS011;23025;41.996;23.098;2023-12-20T04:34:32;15.18;;;14.52;;
37115;SDS011;23025;41.996;23.098;2023-12-20T04:36:59;18.77;;;18.05;;
37115;SDS011;23025;41.996;23.098;2023-12-20T04:39:28;17.05;;;16.20;;
37115;SDS011;23025;41.996;23.098;2023-12-20T04:41:54;18.65;;;17.73;;
37115;SDS011;23025;41.996;23.098;2023-12-20T04:44:21;17.75;;;16.92;;
37115;SDS011;23025;41.996;23.098;2023-12-20T04:46:47;20.23;;;17.65;;
37115;SDS011;23025;41.996;23.098;2023-12-20T04:49:14;20.33;;;19.23;;
37115;SDS011;23025;41.996;23.098;2023-12-20T04:51:40;15.57;;;14.80;;
37115;SDS011;23025;41.996;23.098;2023-12-20T04:54:07;20.00;;;19.00;;
37115;SDS011;23025;41.996;23.098;2023-12-20T04:56:35;24.80;;;23.73;;
37115;SDS011;23025;41.996;23.098;2023-12-20T04:59:02;21.63;;;20.30;;
37115;SDS011;23025;41.996;23.098;2023-12-20T05:01:28;16.55;;;15.55;;
37115;SDS011;23025;41.996;23.098;2023-12-20T05:03:55;13.85;;;13.25;;
37115;SDS011;23025;41.996;23.098;2023-12-20T05:06:21;19.77;;;18.73;;
37115;SDS011;23025;41.996;23.098;2023-12-20T05:08:48;16.17;;;15.02;;
37115;SDS011;23025;41.996;23.098;2023-12-20T05:11:14;15.75;;;15.02;;
37115;SDS011;23025;41.996;23.098;2023-12-20T05:13:42;19.02;;;18.30;;
37115;SDS011;23025;41.996;23.098;2023-12-20T05:16:09;17.95;;;17.02;;
37115;SDS011;23025;41.996;23.098;2023-12-20T05:18:35;17.10;;;16.33;;
37115;SDS011;23025;41.996;23.098;2023-12-20T05:21:02;15.13;;;14.27;;
37115;SDS011;23025;41.996;23.098;2023-12-20T05:23:28;15.38;;;14.50;;
37115;SDS011;23025;41.996;23.098;2023-12-20T05:25:55;16.02;;;15.32;;
37115;SDS011;23025;41.996;23.098;2023-12-20T05:28:21;19.00;;;18.15;;
37115;SDS011;23025;41.996;23.098;2023-12-20T05:30:49;18.23;;;17.42;;
37115;SDS011;23025;41.996;23.098;2023-12-20T05:33:16;16.38;;;15.38;;
37115;SDS011;23025;41.996;23.098;2023-12-20T05:35:42;15.23;;;14.30;;
37115;SDS011;23025;41.996;23.098;2023-12-20T05:38:09;14.98;;;14.30;;
37115;SDS011;23025;41.996;23.098;2023-12-20T05:40:35;18.50;;;17.55;;
37115;SDS011;23025;41.996;23.098;2023-12-20T05:43:02;13.43;;;12.80;;
37115;SDS011;23025;41.996;23.098;2023-12-20T05:45:28;18.13;;;17.35;;
37115;SDS011;23025;41.996;23.098;2023-12-20T05:47:56;17.77;;;17.05;;
37115;SDS011;23025;41.996;23.098;2023-12-20T05:50:22;12.55;;;11.98;;
37115;SDS011;23025;41.996;23.098;2023-12-20T05:52:49;16.73;;;16.00;;
37115;SDS011;23025;41.996;23.098;2023-12-20T05:55:15;14.25;;;13.23;;
37115;SDS011;23025;41.996;23.098;2023-12-20T05:57:42;18.50;;;17.77;;
37115;SDS011;23025;41.996;23.098;2023-12-20T06:00:09;22.17;;;20.90;;
37115;SDS011;23025;41.996;23.098;2023-12-20T06:02:35;20.77;;;19.63;;
37115;SDS011;23025;41.996;23.098;2023-12-20T06:05:04;23.15;;;22.13;;
37115;SDS011;23025;41.996;23.098;2023-12-20T06:07:31;19.70;;;18.70;;
37115;SDS011;23025;41.996;23.098;2023-12-20T06:09:57;20.00;;;19.08;;
37115;SDS011;23025;41.996;23.098;2023-12-20T06:12:24;28.92;;;27.20;;
37115;SDS011;23025;41.996;23.098;2023-12-20T06:14:52;24.23;;;23.23;;
37115;SDS011;23025;41.996;23.098;2023-12-20T06:17:18;17.25;;;16.25;;
37115;SDS011;23025;41.996;23.098;2023-12-20T06:19:45;17.63;;;16.73;;
37115;SDS011;23025;41.996;23.098;2023-12-20T06:22:14;22.63;;;21.45;;
37115;SDS011;23025;41.996;23.098;2023-12-20T06:24:41;16.65;;;15.75;;
37115;SDS011;23025;41.996;23.098;2023-12-20T06:27:07;16.95;;;16.10;;
37115;SDS011;23025;41.996;23.098;2023-12-20T06:29:34;21.95;;;21.00;;
37115;SDS011;23025;41.996;23.098;2023-12-20T06:32:00;17.65;;;16.75;;
37115;SDS011;23025;41.996;23.098;2023-12-20T06:34:27;23.33;;;22.25;;
37115;SDS011;23025;41.996;23.098;2023-12-20T06:36:53;16.45;;;15.40;;
37115;SDS011;23025;41.996;23.098;2023-12-20T06:39:21;17.42;;;16.42;;
37115;SDS011;23025;41.996;23.098;2023-12-20T06:41:48;17.40;;;16.58;;
37115;SDS011;23025;41.996;23.098;2023-12-20T06:44:14;28.90;;;27.77;;
37115;SDS011;23025;41.996;23.098;2023-12-20T06:46:41;23.20;;;22.10;;
37115;SDS011;23025;41.996;23.098;2023-12-20T06:49:07;17.95;;;16.98;;
37115;SDS011;23025;41.996;23.098;2023-12-20T06:51:34;17.33;;;16.42;;
37115;SDS011;23025;41.996;23.098;2023-12-20T06:54:00;22.35;;;21.13;;
37115;SDS011;23025;41.996;23.098;2023-12-20T06:56:29;14.27;;;13.57;;
37115;SDS011;23025;41.996;23.098;2023-12-20T06:58:55;16.98;;;16.20;;
37115;SDS011;23025;41.996;23.098;2023-12-20T07:01:22;15.52;;;14.63;;
37115;SDS011;23025;41.996;23.098;2023-12-20T07:03:48;17.42;;;16.58;;
37115;SDS011;23025;41.996;23.098;2023-12-20T07:06:15;19.17;;;18.30;;
37115;SDS011;23025;41.996;23.098;2023-12-20T07:08:42;31.70;;;30.27;;
37115;SDS011;23025;41.996;23.098;2023-12-20T07:11:08;16.67;;;16.00;;
37115;SDS011;23025;41.996;23.098;2023-12-20T07:13:36;21.80;;;20.58;;
37115;SDS011;23025;41.996;23.098;2023-12-20T07:16:03;17.13;;;16.33;;
37115;SDS011;23025;41.996;23.098;2023-12-20T07:18:29;19.70;;;18.60;;
37115;SDS011;23025;41.996;23.098;2023-12-20T07:20:56;16.73;;;15.13;;
37115;SDS011;23025;41.996;23.098;2023-12-20T07:23:22;22.55;;;21.58;;
37115;SDS011;23025;41.996;23.098;2023-12-20T07:25:50;21.88;;;20.23;;
37115;SDS011;23025;41.996;23.098;2023-12-20T07:28:17;26.00;;;24.63;;
37115;SDS011;23025;41.996;23.098;2023-12-20T07:30:45;14.23;;;13.45;;
37115;SDS011;23025;41.996;23.098;2023-12-20T07:33:11;17.33;;;16.33;;
37115;SDS011;23025;41.996;23.098;2023-12-20T07:35:38;22.02;;;20.50;;
37115;SDS011;23025;41.996;23.098;2023-12-20T07:38:05;14.82;;;13.88;;
37115;SDS011;23025;41.996;23.098;2023-12-20T07:40:32;24.55;;;23.48;;
37115;SDS011;23025;41.996;23.098;2023-12-20T07:42:58;41.15;;;39.50;;
37115;SDS011;23025;41.996;23.098;2023-12-20T07:45:25;39.63;;;38.15;;
37115;SDS011;23025;41.996;23.098;2023-12-20T07:47:53;65.20;;;62.58;;
37115;SDS011;23025;41.996;23.098;2023-12-20T07:50:19;86.43;;;83.38;;
37115;SDS011;23025;41.996;23.098;2023-12-20T07:52:46;114.82;;;110.97;;
37115;SDS011;23025;41.996;23.098;2023-12-20T07:55:12;72.38;;;69.10;;
37115;SDS011;23025;41.996;23.098;2023-12-20T07:57:39;83.07;;;79.25;;
37115;SDS011;23025;41.996;23.098;2023-12-20T08:00:06;60.75;;;58.40;;
37115;SDS011;23025;41.996;23.098;2023-12-20T08:02:33;53.97;;;51.88;;
37115;SDS011;23025;41.996;23.098;2023-12-20T08:05:01;65.50;;;62.88;;
37115;SDS011;23025;41.996;23.098;2023-12-20T08:07:27;78.47;;;75.45;;
37115;SDS011;23025;41.996;23.098;2023-12-20T08:09:54;40.95;;;37.90;;
37115;SDS011;23025;41.996;23.098;2023-12-20T08:12:22;80.60;;;77.10;;
37115;SDS011;23025;41.996;23.098;2023-12-20T08:14:48;74.45;;;71.70;;
37115;SDS011;23025;41.996;23.098;2023-12-20T08:17:15;72.03;;;69.10;;
37115;SDS011;23025;41.996;23.098;2023-12-20T08:19:44;28.63;;;27.15;;
37115;SDS011;23025;41.996;23.098;2023-12-20T08:22:12;35.45;;;33.72;;
37115;SDS011;23025;41.996;23.098;2023-12-20T08:24:38;61.17;;;58.63;;
37115;SDS011;23025;41.996;23.098;2023-12-20T08:27:05;52.67;;;50.53;;
37115;SDS011;23025;41.996;23.098;2023-12-20T08:29:31;44.05;;;41.60;;
37115;SDS011;23025;41.996;23.098;2023-12-20T08:31:58;55.15;;;52.50;;
37115;SDS011;23025;41.996;23.098;2023-12-20T08:34:25;40.08;;;38.33;;
37115;SDS011;23025;41.996;23.098;2023-12-20T08:36:51;51.05;;;48.88;;
37115;SDS011;23025;41.996;23.098;2023-12-20T08:39:19;50.55;;;48.70;;
37115;SDS011;23025;41.996;23.098;2023-12-20T08:41:46;36.90;;;35.38;;
37115;SDS011;23025;41.996;23.098;2023-12-20T08:44:13;41.42;;;38.72;;
37115;SDS011;23025;41.996;23.098;2023-12-20T08:46:39;49.58;;;46.67;;
37115;SDS011;23025;41.996;23.098;2023-12-20T08:49:06;44.40;;;42.20;;
37115;SDS011;23025;41.996;23.098;2023-12-20T08:51:34;50.10;;;47.90;;
37115;SDS011;23025;41.996;23.098;2023-12-20T08:54:00;47.35;;;44.95;;
37115;SDS011;23025;41.996;23.098;2023-12-20T08:56:28;42.25;;;39.53;;
37115;SDS011;23025;41.996;23.098;2023-12-20T08:58:55;36.90;;;35.25;;
37115;SDS011;23025;41.996;23.098;2023-12-20T09:01:21;35.67;;;33.90;;
37115;SDS011;23025;41.996;23.098;2023-12-20T09:03:48;27.08;;;25.85;;
37115;SDS011;23025;41.996;23.098;2023-12-20T09:06:14;29.40;;;28.17;;
37115;SDS011;23025;41.996;23.098;2023-12-20T09:08:41;30.88;;;28.98;;
37115;SDS011;23025;41.996;23.098;2023-12-20T09:11:07;33.05;;;31.38;;
37115;SDS011;23025;41.996;23.098;2023-12-20T09:13:35;21.92;;;20.60;;
37115;SDS011;23025;41.996;23.098;2023-12-20T09:16:02;27.55;;;26.20;;
37115;SDS011;23025;41.996;23.098;2023-12-20T09:18:29;26.67;;;25.08;;
37115;SDS011;23025;41.996;23.098;2023-12-20T09:21:04;33.63;;;31.45;;
37115;SDS011;23025;41.996;23.098;2023-12-20T09:23:30;33.30;;;31.48;;
37115;SDS011;23025;41.996;23.098;2023-12-20T09:25:57;43.45;;;41.38;;
37115;SDS011;23025;41.996;23.098;2023-12-20T09:28:24;33.78;;;32.05;;
37115;SDS011;23025;41.996;23.098;2023-12-20T09:30:51;26.58;;;25.45;;
37115;SDS011;23025;41.996;23.098;2023-12-20T09:33:18;36.55;;;34.72;;
37115;SDS011;23025;41.996;23.098;2023-12-20T09:35:44;35.72;;;33.08;;
37115;SDS011;23025;41.996;23.098;2023-12-20T09:38:11;31.52;;;29.80;;
37115;SDS011;23025;41.996;23.098;2023-12-20T09:40:39;30.70;;;28.50;;
37115;SDS011;23025;41.996;23.098;2023-12-20T09:43:08;27.52;;;26.13;;
37115;SDS011;23025;41.996;23.098;2023-12-20T09:45:36;21.05;;;20.13;;
37115;SDS011;23025;41.996;23.098;2023-12-20T09:48:05;25.25;;;23.40;;
37115;SDS011;23025;41.996;23.098;2023-12-20T09:50:32;33.80;;;32.05;;
37115;SDS011;23025;41.996;23.098;2023-12-20T09:52:58;28.27;;;26.55;;
37115;SDS011;23025;41.996;23.098;2023-12-20T09:55:27;32.90;;;31.35;;
37115;SDS011;23025;41.996;23.098;2023-12-20T09:57:54;28.65;;;26.63;;
37115;SDS011;23025;41.996;23.098;2023-12-20T10:00:20;30.88;;;28.88;;
37115;SDS011;23025;41.996;23.098;2023-12-20T10:02:49;38.10;;;36.05;;
37115;SDS011;23025;41.996;23.098;2023-12-20T10:05:17;30.13;;;28.50;;
37115;SDS011;23025;41.996;23.098;2023-12-20T10:07:45;28.05;;;26.02;;
37115;SDS011;23025;41.996;23.098;2023-12-20T10:10:12;30.27;;;28.55;;
37115;SDS011;23025;41.996;23.098;2023-12-20T10:12:39;22.60;;;21.40;;
37115;SDS011;23025;41.996;23.098;2023-12-20T10:15:06;28.75;;;27.17;;
37115;SDS011;23025;41.996;23.098;2023-12-20T10:17:32;27.52;;;26.02;;
37115;SDS011;23025;41.996;23.098;2023-12-20T10:19:59;28.20;;;26.75;;
37115;SDS011;23025;41.996;23.098;2023-12-20T10:22:27;31.60;;;29.48;;
37115;SDS011;23025;41.996;23.098;2023-12-20T10:24:56;25.10;;;23.23;;
37115;SDS011;23025;41.996;23.098;2023-12-20T10:27:22;29.63;;;28.17;;
37115;SDS011;23025;41.996;23.098;2023-12-20T10:29:49;28.33;;;26.58;;
37115;SDS011;23025;41.996;23.098;2023-12-20T10:32:22;29.33;;;27.13;;
37115;SDS011;23025;41.996;23.098;2023-12-20T10:34:49;26.92;;;25.40;;
37115;SDS011;23025;41.996;23.098;2023-12-20T10:37:15;25.00;;;23.65;;
37115;SDS011;23025;41.996;23.098;2023-12-20T10:39:43;18.30;;;17.33;;
37115;SDS011;23025;41.996;23.098;2023-12-20T10:42:10;25.88;;;23.88;;
37115;SDS011;23025;41.996;23.098;2023-12-20T10:44:37;22.70;;;21.63;;
37115;SDS011;23025;41.996;23.098;2023-12-20T10:47:04;25.17;;;23.40;;
37115;SDS011;23025;41.996;23.098;2023-12-20T10:49:30;24.13;;;22.50;;
37115;SDS011;23025;41.996;23.098;2023-12-20T10:51:56;22.77;;;20.75;;
37115;SDS011;23025;41.996;23.098;2023-12-20T10:54:25;29.77;;;28.00;;
37115;SDS011;23025;41.996;23.098;2023-12-20T10:56:53;20.27;;;19.02;;
37115;SDS011;23025;41.996;23.098;2023-12-20T10:59:19;21.50;;;20.38;;
37115;SDS011;23025;41.996;23.098;2023-12-20T11:01:47;26.23;;;23.95;;
37115;SDS011;23025;41.996;23.098;2023-12-20T11:04:15;24.05;;;22.65;;
37115;SDS011;23025;41.996;23.098;2023-12-20T11:06:43;30.30;;;28.27;;
37115;SDS011;23025;41.996;23.098;2023-12-20T11:09:14;28.60;;;26.58;;
37115;SDS011;23025;41.996;23.098;2023-12-20T11:11:46;14.25;;;13.63;;
37115;SDS011;23025;41.996;23.098;2023-12-20T11:14:19;16.45;;;15.75;;
37115;SDS011;23025;41.996;23.098;2023-12-20T11:16:46;20.10;;;18.65;;
37115;SDS011;23025;41.996;23.098;2023-12-20T11:19:13;35.53;;;33.38;;
37115;SDS011;23025;41.996;23.098;2023-12-20T11:21:40;21.60;;;20.58;;
37115;SDS011;23025;41.996;23.098;2023-12-20T11:24:06;22.02;;;19.77;;
37115;SDS011;23025;41.996;23.098;2023-12-20T11:26:33;26.40;;;24.90;;
37115;SDS011;23025;41.996;23.098;2023-12-20T11:31:42;29.40;;;27.35;;
37115;SDS011;23025;41.996;23.098;2023-12-20T11:34:12;24.45;;;22.23;;
37115;SDS011;23025;41.996;23.098;2023-12-20T11:36:39;22.52;;;20.95;;
37115;SDS011;23025;41.996;23.098;2023-12-20T11:39:06;39.58;;;36.55;;
37115;SDS011;23025;41.996;23.098;2023-12-20T11:41:35;27.10;;;25.42;;
37115;SDS011;23025;41.996;23.098;2023-12-20T11:44:03;26.55;;;24.40;;
37115;SDS011;23025;41.996;23.098;2023-12-20T11:46:31;27.75;;;25.90;;
37115;SDS011;23025;41.996;23.098;2023-12-20T11:48:59;27.48;;;26.02;;
37115;SDS011;23025;41.996;23.098;2023-12-20T11:51:26;25.35;;;23.85;;
37115;SDS011;23025;41.996;23.098;2023-12-20T11:53:53;32.30;;;29.98;;
37115;SDS011;23025;41.996;23.098;2023-12-20T11:56:19;19.67;;;18.45;;
37115;SDS011;23025;41.996;23.098;2023-12-20T11:58:46;28.42;;;26.48;;
37115;SDS011;23025;41.996;23.098;2023-12-20T12:01:14;31.00;;;28.85;;
37115;SDS011;23025;41.996;23.098;2023-12-20T12:03:40;28.67;;;26.85;;
37115;SDS011;23025;41.996;23.098;2023-12-20T12:06:09;29.65;;;27.88;;
37115;SDS011;23025;41.996;23.098;2023-12-20T12:08:35;33.30;;;30.55;;
37115;SDS011;23025;41.996;23.098;2023-12-20T12:11:02;26.05;;;24.15;;
37115;SDS011;23025;41.996;23.098;2023-12-20T12:13:29;31.60;;;29.60;;
37115;SDS011;23025;41.996;23.098;2023-12-20T12:15:56;27.20;;;25.85;;
37115;SDS011;23025;41.996;23.098;2023-12-20T12:18:22;30.23;;;27.50;;
37115;SDS011;23025;41.996;23.098;2023-12-20T12:20:49;28.45;;;26.10;;
37115;SDS011;23025;41.996;23.098;2023-12-20T12:23:22;33.40;;;31.05;;
37115;SDS011;23025;41.996;23.098;2023-12-20T12:25:49;29.30;;;26.33;;
37115;SDS011;23025;41.996;23.098;2023-12-20T12:28:15;30.17;;;27.98;;
37115;SDS011;23025;41.996;23.098;2023-12-20T12:30:42;34.10;;;31.70;;
37115;SDS011;23025;41.996;23.098;2023-12-20T12:33:08;24.40;;;23.00;;
37115;SDS011;23025;41.996;23.098;2023-12-20T12:35:35;38.33;;;35.80;;
37115;SDS011;23025;41.996;23.098;2023-12-20T12:38:01;41.05;;;38.08;;
37115;SDS011;23025;41.996;23.098;2023-12-20T12:40:29;25.73;;;23.23;;
37115;SDS011;23025;41.996;23.098;2023-12-20T12:43:01;31.20;;;28.90;;
37115;SDS011;23025;41.996;23.098;2023-12-20T12:45:28;33.55;;;30.63;;
37115;SDS011;23025;41.996;23.098;2023-12-20T12:47:54;29.92;;;27.20;;
37115;SDS011;23025;41.996;23.098;2023-12-20T12:50:21;37.05;;;34.60;;
37115;SDS011;23025;41.996;23.098;2023-12-20T12:52:47;33.72;;;30.95;;
37115;SDS011;23025;41.996;23.098;2023-12-20T12:55:14;25.88;;;23.27;;
37115;SDS011;23025;41.996;23.098;2023-12-20T12:57:42;25.75;;;22.08;;
37115;SDS011;23025;41.996;23.098;2023-12-20T13:00:09;32.35;;;29.00;;
37115;SDS011;23025;41.996;23.098;2023-12-20T13:02:36;31.52;;;29.13;;
37115;SDS011;23025;41.996;23.098;2023-12-20T13:05:07;34.65;;;32.35;;
37115;SDS011;23025;41.996;23.098;2023-12-20T13:07:33;30.23;;;27.42;;
37115;SDS011;23025;41.996;23.098;2023-12-20T13:10:00;24.27;;;22.00;;
37115;SDS011;23025;41.996;23.098;2023-12-20T13:12:27;29.45;;;27.48;;
37115;SDS011;23025;41.996;23.098;2023-12-20T13:14:56;28.35;;;25.55;;
37115;SDS011;23025;41.996;23.098;2023-12-20T13:17:22;28.83;;;26.38;;
37115;SDS011;23025;41.996;23.098;2023-12-20T13:19:48;30.90;;;28.50;;
37115;SDS011;23025;41.996;23.098;2023-12-20T13:22:15;25.25;;;23.27;;
37115;SDS011;23025;41.996;23.098;2023-12-20T13:24:42;29.27;;;27.77;;
37115;SDS011;23025;41.996;23.098;2023-12-20T13:27:09;24.73;;;22.50;;
37115;SDS011;23025;41.996;23.098;2023-12-20T13:29:35;26.30;;;24.17;;
37115;SDS011;23025;41.996;23.098;2023-12-20T13:32:03;26.05;;;24.30;;
37115;SDS011;23025;41.996;23.098;2023-12-20T13:34:30;26.33;;;24.23;;
37115;SDS011;23025;41.996;23.098;2023-12-20T13:36:57;23.10;;;21.08;;
37115;SDS011;23025;41.996;23.098;2023-12-20T13:39:23;23.33;;;21.10;;
37115;SDS011;23025;41.996;23.098;2023-12-20T13:41:50;27.27;;;25.45;;
37115;SDS011;23025;41.996;23.098;2023-12-20T13:44:16;24.58;;;22.52;;
37115;SDS011;23025;41.996;23.098;2023-12-20T13:46:43;27.20;;;24.75;;
37115;SDS011;23025;41.996;23.098;2023-12-20T13:49:12;31.27;;;28.50;;
37115;SDS011;23025;41.996;23.098;2023-12-20T13:51:38;29.67;;;27.48;;
37115;SDS011;23025;41.996;23.098;2023-12-20T13:54:05;31.23;;;28.67;;
37115;SDS011;23025;41.996;23.098;2023-12-20T13:56:31;32.03;;;29.40;;
37115;SDS011;23025;41.996;23.098;2023-12-20T13:58:59;32.70;;;30.25;;
37115;SDS011;23025;41.996;23.098;2023-12-20T14:01:25;26.35;;;24.23;;
37115;SDS011;23025;41.996;23.098;2023-12-20T14:03:52;23.92;;;22.23;;
37115;SDS011;23025;41.996;23.098;2023-12-20T14:06:20;26.70;;;22.88;;
37115;SDS011;23025;41.996;23.098;2023-12-20T14:08:46;22.75;;;20.98;;